createdAt,value
2019-03-19T00:00:27.243Z,78.88
2019-03-19T00:02:56.086Z,78.61
2019-03-19T00:05:25.064Z,78.41
2019-03-19T00:07:53.944Z,78.22
2019-03-19T00:10:22.873Z,78.28
2019-03-19T00:12:51.799Z,78.63
2019-03-19T00:15:20.797Z,78.65
2019-03-19T00:17:49.670Z,79.15
2019-03-19T00:20:18.652Z,78.17
2019-03-19T00:22:47.659Z,78.63
2019-03-19T00:25:16.566Z,78.76
2019-03-19T00:27:45.459Z,78.77
2019-03-19T00:30:14.545Z,77.71
2019-03-19T00:32:43.383Z,77.35
2019-03-19T00:35:12.532Z,77.30
2019-03-19T00:37:41.379Z,77.48
2019-03-19T00:40:11.021Z,77.28
2019-03-19T00:42:40.184Z,78.17
2019-03-19T00:45:09.434Z,78.13
2019-03-19T00:47:38.292Z,77.54
2019-03-19T00:50:07.690Z,77.28
2019-03-19T00:52:36.636Z,77.47
2019-03-19T00:55:05.827Z,77.60
2019-03-19T00:57:34.602Z,78.05
2019-03-19T01:00:04.257Z,78.43
2019-03-19T01:02:33.276Z,78.26
2019-03-19T01:05:02.094Z,78.49
2019-03-19T01:07:30.974Z,77.87
2019-03-19T01:09:59.803Z,77.36
2019-03-19T01:12:28.714Z,77.16
2019-03-19T01:14:57.475Z,77.77
2019-03-19T01:17:26.340Z,77.96
2019-03-19T01:19:56.331Z,77.77
2019-03-19T01:22:25.207Z,77.43
2019-03-19T01:24:54.123Z,76.44
2019-03-19T01:27:23.080Z,76.03
2019-03-19T01:29:51.931Z,76.34
2019-03-19T01:32:20.771Z,76.54
2019-03-19T01:34:49.545Z,77.02
2019-03-19T01:37:18.447Z,76.95
2019-03-19T01:39:47.383Z,76.93
2019-03-19T01:42:16.226Z,76.46
2019-03-19T01:44:45.169Z,76.64
2019-03-19T01:47:18.637Z,77.05
2019-03-19T01:49:47.673Z,77.02
2019-03-19T01:52:16.669Z,76.07
2019-03-19T01:54:45.628Z,74.98
2019-03-19T01:57:14.450Z,73.00
2019-03-19T01:59:43.223Z,73.42
2019-03-19T02:02:12.256Z,74.08
2019-03-19T02:04:41.101Z,74.51
2019-03-19T02:07:09.894Z,74.11
2019-03-19T02:09:38.768Z,73.91
2019-03-19T02:12:07.667Z,73.57
2019-03-19T02:14:36.567Z,72.20
2019-03-19T02:17:05.496Z,70.68
2019-03-19T02:19:34.339Z,70.90
2019-03-19T02:22:03.311Z,71.35
2019-03-19T02:24:32.220Z,71.07
2019-03-19T02:27:01.346Z,70.83
2019-03-19T02:29:30.339Z,70.88
2019-03-19T02:31:59.260Z,70.87
2019-03-19T02:34:29.105Z,70.69
2019-03-19T02:36:58.007Z,71.07
2019-03-19T02:39:26.974Z,71.66
2019-03-19T02:41:55.886Z,72.58
2019-03-19T02:44:24.666Z,72.86
2019-03-19T02:46:53.576Z,73.30
2019-03-19T02:49:22.629Z,73.92
2019-03-19T02:51:51.522Z,75.08
2019-03-19T02:54:20.464Z,76.01
2019-03-19T02:56:49.347Z,76.36
2019-03-19T02:59:18.286Z,76.50
2019-03-19T03:01:47.265Z,76.90
2019-03-19T03:04:16.234Z,77.44
2019-03-19T03:06:45.213Z,77.85
2019-03-19T03:09:14.070Z,78.16
2019-03-19T03:11:43.023Z,78.58
2019-03-19T03:14:11.862Z,79.26
2019-03-19T03:16:40.803Z,78.79
2019-03-19T03:19:09.818Z,78.39
2019-03-19T03:21:38.662Z,78.32
2019-03-19T03:24:07.622Z,78.45
2019-03-19T03:26:47.798Z,77.91
2019-03-19T03:29:07.989Z,77.54
2019-03-19T03:31:36.890Z,77.62
2019-03-19T03:34:05.894Z,77.96
2019-03-19T03:36:34.724Z,78.69
2019-03-19T03:39:04.666Z,79.43
2019-03-19T03:41:33.596Z,79.32
2019-03-19T03:44:02.562Z,79.81
2019-03-19T03:46:31.411Z,80.22
2019-03-19T03:49:00.359Z,79.96
2019-03-19T03:51:29.229Z,80.23
2019-03-19T03:53:58.098Z,79.81
2019-03-19T03:56:26.934Z,80.00
2019-03-19T03:59:00.963Z,80.19
2019-03-19T04:01:26.495Z,79.68
2019-03-19T04:03:55.356Z,79.68
2019-03-19T04:06:24.226Z,78.77
2019-03-19T04:08:53.006Z,79.38
2019-03-19T04:11:21.745Z,79.49
2019-03-19T04:13:50.561Z,79.29
2019-03-19T04:16:19.421Z,79.07
2019-03-19T04:18:48.272Z,78.69
2019-03-19T04:21:17.232Z,78.46
2019-03-19T04:23:46.221Z,78.90
2019-03-19T04:26:15.194Z,78.57
2019-03-19T04:28:44.165Z,79.04
2019-03-19T04:31:13.111Z,79.07
2019-03-19T04:33:42.087Z,79.15
2019-03-19T04:36:10.966Z,78.44
2019-03-19T04:38:39.775Z,77.45
2019-03-19T04:41:08.680Z,75.87
2019-03-19T04:43:37.554Z,76.43
2019-03-19T04:46:06.422Z,76.68
2019-03-19T04:48:35.394Z,75.44
2019-03-19T04:51:04.720Z,75.74
2019-03-19T04:53:33.585Z,75.91
2019-03-19T04:56:02.377Z,76.64
2019-03-19T04:58:31.186Z,76.59
2019-03-19T05:01:00.200Z,76.67
2019-03-19T05:03:29.187Z,76.68
2019-03-19T05:05:59.642Z,77.11
2019-03-19T05:08:28.783Z,76.55
2019-03-19T05:10:57.581Z,76.24
2019-03-19T05:13:26.340Z,76.53
2019-03-19T05:15:55.410Z,77.09
2019-03-19T05:18:24.189Z,77.33
2019-03-19T05:20:53.102Z,76.49
2019-03-19T05:23:21.992Z,76.65
2019-03-19T05:25:50.795Z,76.80
2019-03-19T05:28:19.606Z,77.11
2019-03-19T05:30:48.422Z,77.19
2019-03-19T05:33:19.402Z,77.26
2019-03-19T05:35:47.865Z,77.42
2019-03-19T05:38:16.775Z,77.79
2019-03-19T05:40:45.632Z,77.83
2019-03-19T05:43:14.593Z,77.80
2019-03-19T05:45:43.449Z,77.80
2019-03-19T05:48:12.274Z,78.19
2019-03-19T05:50:41.289Z,78.40
2019-03-19T05:53:10.098Z,78.28
2019-03-19T05:55:38.972Z,77.61
2019-03-19T05:58:07.866Z,77.48
2019-03-19T06:00:37.369Z,75.65
2019-03-19T06:03:06.345Z,75.92
2019-03-19T06:05:35.146Z,76.19
2019-03-19T06:08:04.007Z,76.75
2019-03-19T06:10:32.999Z,77.13
2019-03-19T06:13:01.890Z,77.56
2019-03-19T06:15:30.878Z,78.42
2019-03-19T06:17:59.767Z,76.51
2019-03-19T06:20:28.706Z,75.79
2019-03-19T06:22:57.588Z,75.93
2019-03-19T06:25:26.530Z,75.62
2019-03-19T06:28:00.261Z,75.34
2019-03-19T06:30:26.064Z,74.83
2019-03-19T06:32:55.041Z,74.68
2019-03-19T06:35:24.123Z,75.99
2019-03-19T06:37:53.012Z,75.85
2019-03-19T06:40:22.441Z,74.82
2019-03-19T06:42:51.518Z,73.66
2019-03-19T06:45:22.882Z,73.92
2019-03-19T06:47:51.280Z,73.42
2019-03-19T06:50:20.545Z,72.94
2019-03-19T06:52:49.542Z,72.54
2019-03-19T06:55:18.872Z,71.56
2019-03-19T06:57:48.247Z,70.99
2019-03-19T07:00:18.278Z,71.05
2019-03-19T07:02:47.273Z,70.96
2019-03-19T07:05:16.713Z,70.78
2019-03-19T07:07:45.643Z,70.32
2019-03-19T07:10:14.633Z,70.05
2019-03-19T07:12:43.603Z,70.25
2019-03-19T07:15:13.625Z,70.10
2019-03-19T07:17:42.495Z,70.55
2019-03-19T07:20:13.049Z,70.10
2019-03-19T07:22:42.035Z,70.04
2019-03-19T07:25:11.134Z,69.60
2019-03-19T07:27:40.100Z,67.89
2019-03-19T07:30:13.141Z,68.70
2019-03-19T07:32:42.235Z,66.68
2019-03-19T07:35:11.325Z,67.40
2019-03-19T07:37:43.348Z,68.22
2019-03-19T07:40:12.590Z,68.58
2019-03-19T07:42:41.756Z,67.40
2019-03-19T07:45:13.142Z,66.11
2019-03-19T07:47:42.196Z,64.49
2019-03-19T07:50:12.540Z,64.71
2019-03-19T07:52:41.399Z,65.53
2019-03-19T07:55:10.486Z,64.59
2019-03-19T07:57:39.374Z,64.56
2019-03-19T08:00:09.808Z,64.71
2019-03-19T08:02:38.756Z,64.97
2019-03-19T08:05:08.736Z,64.53
2019-03-19T08:07:37.625Z,64.93
2019-03-19T08:10:06.966Z,65.26
2019-03-19T08:12:35.999Z,63.31
2019-03-19T08:15:05.633Z,63.46
2019-03-19T08:17:34.613Z,61.92
2019-03-19T08:20:03.832Z,62.59
2019-03-19T08:22:32.758Z,61.69
2019-03-19T08:25:01.821Z,60.64
2019-03-19T08:27:30.693Z,60.61
2019-03-19T08:29:59.776Z,60.38
2019-03-19T08:32:28.755Z,60.24
2019-03-19T08:34:57.825Z,60.24
2019-03-19T08:37:26.808Z,59.65
2019-03-19T08:39:56.725Z,61.00
2019-03-19T08:42:25.773Z,60.12
2019-03-19T08:44:54.553Z,60.66
2019-03-19T08:47:23.505Z,59.02
2019-03-19T08:49:52.379Z,58.35
2019-03-19T08:52:21.427Z,59.92
2019-03-19T08:54:50.375Z,60.01
2019-03-19T08:57:19.248Z,59.50
2019-03-19T08:59:48.115Z,58.34
2019-03-19T09:02:17.277Z,58.52
2019-03-19T09:04:46.190Z,56.97
2019-03-19T09:07:15.196Z,56.87
2019-03-19T09:09:44.008Z,56.18
2019-03-19T09:12:12.920Z,55.83
2019-03-19T09:14:42.018Z,55.94
2019-03-19T09:17:11.048Z,55.20
2019-03-19T09:19:41.030Z,54.83
2019-03-19T09:22:10.052Z,54.05
2019-03-19T09:24:38.820Z,53.30
2019-03-19T09:27:07.782Z,52.86
2019-03-19T09:29:36.799Z,51.79
2019-03-19T09:32:05.754Z,51.48
2019-03-19T09:34:34.690Z,51.45
2019-03-19T09:37:03.971Z,50.28
2019-03-19T09:39:32.903Z,48.60
2019-03-19T09:42:01.919Z,47.49
2019-03-19T09:44:30.864Z,46.36
2019-03-19T09:46:59.792Z,44.25
2019-03-19T09:49:28.750Z,43.55
2019-03-19T09:51:57.759Z,40.45
2019-03-19T09:54:26.774Z,40.17
2019-03-19T09:56:55.790Z,38.95
2019-03-19T09:59:27.382Z,38.04
2019-03-19T10:01:55.588Z,37.88
2019-03-19T10:04:24.519Z,37.26
2019-03-19T10:06:53.330Z,37.97
2019-03-19T10:09:22.687Z,38.85
2019-03-19T10:11:51.635Z,39.54
2019-03-19T10:14:20.611Z,38.60
2019-03-19T10:16:49.521Z,37.52
2019-03-19T10:19:18.536Z,37.70
2019-03-19T10:21:47.582Z,36.46
2019-03-19T10:24:16.658Z,37.49
2019-03-19T10:26:45.675Z,38.58
2019-03-19T10:29:14.642Z,38.92
2019-03-19T10:31:43.580Z,38.64
2019-03-19T10:34:12.474Z,39.86
2019-03-19T10:36:41.389Z,40.67
2019-03-19T10:39:10.565Z,40.67
2019-03-19T10:41:39.381Z,40.22
2019-03-19T10:44:08.405Z,39.26
2019-03-19T10:46:37.432Z,39.33
2019-03-19T10:49:06.429Z,40.15
2019-03-19T10:51:35.397Z,40.96
2019-03-19T10:54:04.486Z,42.03
2019-03-19T10:56:33.416Z,42.92
2019-03-19T10:59:02.541Z,42.79
2019-03-19T11:01:31.532Z,42.91
2019-03-19T11:04:00.475Z,43.06
2019-03-19T11:06:29.376Z,42.89
2019-03-19T11:08:58.338Z,42.55
2019-03-19T11:11:27.375Z,42.19
2019-03-19T11:13:56.263Z,42.83
2019-03-19T11:16:25.369Z,42.10
2019-03-19T11:18:57.526Z,42.34
2019-03-19T11:21:26.435Z,41.90
2019-03-19T11:23:55.252Z,41.70
2019-03-19T11:26:24.207Z,40.21
2019-03-19T11:28:53.248Z,39.74
2019-03-19T11:31:22.147Z,39.11
2019-03-19T11:33:51.129Z,38.83
2019-03-19T11:36:20.069Z,38.78
2019-03-19T11:38:49.079Z,38.39
2019-03-19T11:41:18.030Z,38.11
2019-03-19T11:43:46.949Z,38.24
2019-03-19T11:46:15.868Z,37.74
2019-03-19T11:48:45.042Z,38.15
2019-03-19T11:51:14.160Z,36.98
2019-03-19T11:53:43.119Z,37.17
2019-03-19T11:56:11.983Z,37.13
2019-03-19T11:58:40.927Z,36.83
2019-03-19T12:01:09.924Z,37.68
2019-03-19T12:03:38.835Z,37.29
2019-03-19T12:06:07.823Z,36.91
2019-03-19T12:08:36.678Z,36.62
2019-03-19T12:11:05.798Z,36.24
2019-03-19T12:13:34.827Z,36.37
2019-03-19T12:16:04.007Z,36.22
2019-03-19T12:18:32.907Z,36.06
2019-03-19T12:21:05.732Z,36.21
2019-03-19T12:23:34.726Z,36.37
2019-03-19T12:26:03.704Z,36.40
2019-03-19T12:28:39.590Z,36.40
2019-03-19T12:31:05.148Z,36.10
2019-03-19T12:33:40.948Z,35.93
2019-03-19T12:36:04.701Z,35.92
2019-03-19T12:38:33.549Z,36.07
2019-03-19T12:41:02.433Z,36.49
2019-03-19T12:43:31.328Z,36.73
2019-03-19T12:46:00.188Z,36.97
2019-03-19T12:48:29.026Z,37.68
2019-03-19T12:50:57.933Z,36.81
2019-03-19T12:53:26.878Z,37.35
2019-03-19T12:55:56.472Z,37.35
2019-03-19T12:58:25.427Z,37.46
2019-03-19T13:00:55.699Z,36.85
2019-03-19T13:03:24.645Z,35.61
2019-03-19T13:05:53.667Z,35.80
2019-03-19T13:08:22.609Z,35.27
2019-03-19T13:10:51.603Z,35.00
2019-03-19T13:13:20.511Z,34.69
2019-03-19T13:15:49.728Z,34.80
2019-03-19T13:18:18.723Z,33.83
2019-03-19T13:20:47.632Z,33.73
2019-03-19T13:23:16.541Z,34.26
2019-03-19T13:25:45.465Z,33.70
2019-03-19T13:28:14.368Z,33.06
2019-03-19T13:30:45.448Z,32.89
2019-03-19T13:33:13.881Z,32.46
2019-03-19T13:35:42.855Z,32.81
2019-03-19T13:38:12.796Z,32.50
2019-03-19T13:40:41.945Z,32.03
2019-03-19T13:43:10.814Z,32.47
2019-03-19T13:45:39.796Z,31.63
2019-03-19T13:48:08.705Z,31.30
2019-03-19T13:50:37.637Z,29.60
2019-03-19T13:53:06.664Z,28.96
2019-03-19T13:55:35.754Z,28.61
2019-03-19T13:58:06.930Z,28.19
2019-03-19T14:00:36.119Z,28.35
2019-03-19T14:03:05.400Z,26.71
2019-03-19T14:05:34.307Z,26.85
2019-03-19T14:08:03.324Z,27.03
2019-03-19T14:10:32.177Z,26.37
2019-03-19T14:13:01.103Z,26.18
2019-03-19T14:15:30.069Z,27.11
2019-03-19T14:17:58.864Z,26.83
2019-03-19T14:20:27.770Z,26.60
2019-03-19T14:22:56.681Z,26.07
2019-03-19T14:25:25.712Z,26.14
2019-03-19T14:27:54.679Z,25.54
2019-03-19T14:30:23.680Z,24.58
2019-03-19T14:32:52.729Z,24.87
2019-03-19T14:35:21.721Z,25.41
2019-03-19T14:37:50.641Z,24.24
2019-03-19T14:40:19.945Z,26.08
2019-03-19T14:42:49.070Z,25.14
2019-03-19T14:45:18.346Z,25.19
2019-03-19T14:47:47.403Z,25.00
2019-03-19T14:50:16.871Z,25.64
2019-03-19T14:52:45.744Z,25.88
2019-03-19T14:55:14.732Z,25.41
2019-03-19T14:57:43.916Z,25.31
2019-03-19T15:00:14.404Z,25.31
2019-03-19T15:02:43.459Z,24.63
2019-03-19T15:05:12.935Z,24.92
2019-03-19T15:07:41.919Z,25.56
2019-03-19T15:10:12.792Z,24.48
2019-03-19T15:12:41.755Z,25.16
2019-03-19T15:15:12.392Z,24.68
2019-03-19T15:17:41.197Z,24.49
2019-03-19T15:20:12.665Z,24.52
2019-03-19T15:22:41.626Z,24.07
2019-03-19T15:25:10.519Z,23.42
2019-03-19T15:27:39.583Z,23.90
2019-03-19T15:30:08.952Z,24.81
2019-03-19T15:32:37.990Z,24.86
2019-03-19T15:35:08.376Z,24.52
2019-03-19T15:37:37.294Z,23.31
2019-03-19T15:40:07.909Z,23.78
2019-03-19T15:42:36.726Z,23.38
2019-03-19T15:45:07.614Z,23.16
2019-03-19T15:47:36.721Z,23.38
2019-03-19T15:50:06.804Z,23.44
2019-03-19T15:52:35.832Z,23.61
2019-03-19T15:55:05.023Z,23.76
2019-03-19T15:57:34.008Z,22.81
2019-03-19T16:00:03.215Z,22.56
2019-03-19T16:02:32.104Z,22.04
2019-03-19T16:05:01.043Z,23.05
2019-03-19T16:07:29.987Z,23.05
2019-03-19T16:09:58.900Z,23.08
2019-03-19T16:12:27.977Z,22.60
2019-03-19T16:14:56.848Z,24.27
2019-03-19T16:17:26.009Z,23.74
2019-03-19T16:19:54.927Z,23.91
2019-03-19T16:22:23.853Z,23.19
2019-03-19T16:24:52.730Z,24.23
2019-03-19T16:27:21.737Z,25.11
2019-03-19T16:29:50.963Z,24.68
2019-03-19T16:32:20.041Z,24.34
2019-03-19T16:34:48.978Z,24.61
2019-03-19T16:37:17.768Z,25.21
2019-03-19T16:39:46.606Z,25.33
2019-03-19T16:42:15.521Z,25.75
2019-03-19T16:44:44.542Z,25.13
2019-03-19T16:47:13.447Z,25.88
2019-03-19T16:49:42.605Z,26.97
2019-03-19T16:52:11.684Z,27.71
2019-03-19T16:54:40.652Z,28.79
2019-03-19T16:57:09.631Z,29.85
2019-03-19T16:59:38.462Z,30.86
2019-03-19T17:02:07.429Z,31.14
2019-03-19T17:04:36.292Z,30.89
2019-03-19T17:07:05.231Z,30.83
2019-03-19T17:09:34.149Z,31.34
2019-03-19T17:12:03.076Z,32.34
2019-03-19T17:14:32.002Z,33.15
2019-03-19T17:17:00.887Z,33.60
2019-03-19T17:19:29.781Z,34.72
2019-03-19T17:21:58.797Z,35.27
2019-03-19T17:24:29.098Z,36.25
2019-03-19T17:26:58.011Z,36.89
2019-03-19T17:29:26.932Z,37.32
2019-03-19T17:31:55.957Z,38.02
2019-03-19T17:34:24.895Z,38.08
2019-03-19T17:36:53.794Z,39.47
2019-03-19T17:39:22.723Z,39.56
2019-03-19T17:41:51.744Z,39.58
2019-03-19T17:44:20.564Z,39.69
2019-03-19T17:46:49.455Z,40.03
2019-03-19T17:49:19.067Z,39.84
2019-03-19T17:51:47.916Z,40.33
2019-03-19T17:54:16.899Z,40.23
2019-03-19T17:56:45.758Z,41.16
2019-03-19T17:59:14.655Z,41.46
2019-03-19T18:01:43.559Z,41.03
2019-03-19T18:04:12.381Z,41.34
2019-03-19T18:06:43.084Z,42.30
2019-03-19T18:09:11.866Z,42.45
2019-03-19T18:11:40.763Z,42.47
2019-03-19T18:14:09.742Z,42.14
2019-03-19T18:16:38.702Z,42.04
2019-03-19T18:19:07.656Z,41.88
2019-03-19T18:21:36.670Z,42.18
2019-03-19T18:24:05.563Z,41.95
2019-03-19T18:26:34.977Z,42.32
2019-03-19T18:29:03.892Z,42.87
2019-03-19T18:31:32.826Z,43.20
2019-03-19T18:34:10.183Z,42.75
2019-03-19T18:36:33.854Z,43.69
2019-03-19T18:39:02.736Z,44.51
2019-03-19T18:41:31.767Z,44.15
2019-03-19T18:44:01.035Z,44.60
2019-03-19T18:46:29.874Z,45.45
2019-03-19T18:48:58.707Z,44.65
2019-03-19T18:51:27.528Z,44.24
2019-03-19T18:53:57.153Z,44.05
2019-03-19T18:56:26.035Z,43.75
2019-03-19T18:58:54.943Z,43.90
2019-03-19T19:01:23.867Z,44.32
2019-03-19T19:03:52.913Z,44.01
2019-03-19T19:06:21.842Z,45.19
2019-03-19T19:08:50.651Z,48.07
2019-03-19T19:11:19.500Z,45.80
2019-03-19T19:13:48.492Z,45.76
2019-03-19T19:16:17.411Z,46.51
2019-03-19T19:18:46.402Z,47.06
2019-03-19T19:21:15.366Z,48.22
2019-03-19T19:23:44.264Z,49.42
2019-03-19T19:26:13.350Z,48.23
2019-03-19T19:28:42.449Z,49.46
2019-03-19T19:31:11.373Z,50.16
2019-03-19T19:33:40.253Z,50.42
2019-03-19T19:36:09.276Z,50.99
2019-03-19T19:38:38.058Z,51.02
2019-03-19T19:41:07.041Z,51.85
2019-03-19T19:43:35.998Z,53.21
2019-03-19T19:46:05.263Z,53.96
2019-03-19T19:48:34.255Z,54.24
2019-03-19T19:51:03.176Z,54.37
2019-03-19T19:53:32.008Z,54.40
2019-03-19T19:56:00.812Z,55.25
2019-03-19T19:58:29.713Z,55.53
2019-03-19T20:00:58.612Z,54.33
2019-03-19T20:03:27.624Z,54.12
2019-03-19T20:05:56.438Z,54.40
2019-03-19T20:08:25.314Z,54.17
2019-03-19T20:10:54.546Z,53.81
2019-03-19T20:13:23.438Z,54.16
2019-03-19T20:15:52.244Z,54.75
2019-03-19T20:18:21.184Z,55.05
2019-03-19T20:20:50.152Z,55.09
2019-03-19T20:23:19.054Z,54.75
2019-03-19T20:25:48.036Z,55.38
2019-03-19T20:28:16.991Z,56.04
2019-03-19T20:30:46.175Z,56.77
2019-03-19T20:33:24.470Z,56.82
2019-03-19T20:35:45.575Z,57.78
2019-03-19T20:38:14.397Z,57.60
2019-03-19T20:40:43.233Z,57.84
2019-03-19T20:43:12.079Z,58.13
2019-03-19T20:45:40.938Z,59.18
2019-03-19T20:48:09.894Z,58.64
2019-03-19T20:50:38.924Z,59.49
2019-03-19T20:53:07.877Z,60.67
2019-03-19T20:55:36.965Z,59.97
2019-03-19T20:58:06.002Z,59.97
2019-03-19T21:00:34.967Z,59.82
2019-03-19T21:03:04.699Z,61.17
2019-03-19T21:05:33.807Z,60.92
2019-03-19T21:08:03.164Z,61.15
2019-03-19T21:10:32.116Z,60.51
2019-03-19T21:13:01.140Z,61.63
2019-03-19T21:15:30.224Z,60.69
2019-03-19T21:17:59.420Z,61.43
2019-03-19T21:20:28.313Z,60.65
2019-03-19T21:22:57.115Z,60.70
2019-03-19T21:25:25.894Z,61.11
2019-03-19T21:27:54.779Z,61.47
2019-03-19T21:30:23.747Z,61.17
2019-03-19T21:32:52.959Z,59.61
2019-03-19T21:35:22.281Z,58.47
2019-03-19T21:37:51.356Z,58.70
2019-03-19T21:40:20.565Z,59.68
2019-03-19T21:42:49.590Z,60.64
2019-03-19T21:45:18.762Z,61.91
2019-03-19T21:47:47.749Z,62.87
2019-03-19T21:50:16.807Z,62.93
2019-03-19T21:52:46.006Z,63.40
2019-03-19T21:55:14.995Z,64.13
2019-03-19T21:57:43.883Z,64.59
2019-03-19T22:00:16.129Z,65.29
2019-03-19T22:02:45.083Z,65.91
2019-03-19T22:05:14.254Z,65.72
2019-03-19T22:07:43.199Z,65.90
2019-03-19T22:10:13.225Z,66.23
2019-03-19T22:12:42.446Z,66.34
2019-03-19T22:15:14.442Z,65.93
2019-03-19T22:17:43.664Z,66.68
2019-03-19T22:20:14.237Z,67.36
2019-03-19T22:22:43.150Z,66.96
2019-03-19T22:25:12.370Z,66.53
2019-03-19T22:27:41.439Z,67.00
2019-03-19T22:30:13.134Z,66.43
2019-03-19T22:32:42.130Z,67.35
2019-03-19T22:35:11.432Z,67.54
2019-03-19T22:37:43.504Z,67.56
2019-03-19T22:40:17.612Z,65.99
2019-03-19T22:42:46.572Z,66.59
2019-03-19T22:45:15.638Z,66.48
2019-03-19T22:47:44.815Z,66.69
2019-03-19T22:50:17.202Z,66.05
2019-03-19T22:52:55.845Z,66.14
2019-03-19T22:55:29.419Z,65.44
2019-03-19T22:57:59.873Z,65.72
2019-03-19T23:00:49.523Z,65.37
2019-03-19T23:03:19.972Z,65.89
2019-03-19T23:05:49.018Z,66.24
2019-03-19T23:08:17.919Z,66.78
2019-03-19T23:10:46.763Z,67.66
2019-03-19T23:13:16.162Z,67.40
2019-03-19T23:15:44.912Z,67.16
2019-03-19T23:18:13.715Z,67.16
2019-03-19T23:20:42.607Z,67.62
2019-03-19T23:23:11.485Z,67.31
2019-03-19T23:25:40.339Z,67.22
2019-03-19T23:28:09.210Z,67.74
2019-03-19T23:30:38.033Z,68.85
2019-03-19T23:33:07.110Z,69.04
2019-03-19T23:35:36.031Z,69.06
2019-03-19T23:38:04.916Z,69.51
2019-03-19T23:40:33.741Z,69.83
2019-03-19T23:43:02.729Z,68.95
2019-03-19T23:45:32.948Z,69.11
2019-03-19T23:48:01.775Z,69.07
2019-03-19T23:50:30.759Z,69.31
2019-03-19T23:53:07.194Z,69.89
2019-03-19T23:55:36.161Z,69.89
2019-03-19T23:58:05.156Z,70.77
